createdAt,value
2022-10-23T00:01:14.330Z,5.86
2022-10-23T00:03:43.634Z,5.79
2022-10-23T00:06:12.036Z,5.75
2022-10-23T00:08:40.231Z,5.73
2022-10-23T00:11:09.103Z,5.70
2022-10-23T00:13:37.016Z,5.65
2022-10-23T00:16:05.174Z,5.62
2022-10-23T00:18:33.076Z,5.61
2022-10-23T00:21:02.436Z,5.55
2022-10-23T00:23:30.414Z,5.50
2022-10-23T00:25:58.261Z,5.45
2022-10-23T00:28:26.104Z,5.42
2022-10-23T00:30:53.995Z,5.37
2022-10-23T00:33:21.847Z,5.35
2022-10-23T00:35:49.723Z,5.32
2022-10-23T00:38:19.003Z,5.30
2022-10-23T00:40:47.217Z,5.26
2022-10-23T00:43:19.775Z,5.25
2022-10-23T00:45:48.160Z,5.20
2022-10-23T00:48:16.695Z,5.15
2022-10-23T00:50:44.830Z,5.18
2022-10-23T00:53:14.108Z,5.11
2022-10-23T00:55:46.828Z,5.05
2022-10-23T00:58:15.070Z,5.07
2022-10-23T01:00:47.127Z,5.05
2022-10-23T01:03:16.833Z,4.98
2022-10-23T01:05:51.649Z,4.92
2022-10-23T01:08:29.435Z,4.87
2022-10-23T01:11:05.210Z,4.83
2022-10-23T01:13:40.605Z,4.81
2022-10-23T01:16:15.370Z,4.79
2022-10-23T01:18:46.855Z,4.75
2022-10-23T01:21:19.880Z,4.69
2022-10-23T01:24:19.570Z,4.66
2022-10-23T01:27:05.137Z,4.64
2022-10-23T01:29:39.330Z,4.65
2022-10-23T01:32:14.962Z,4.55
2022-10-23T01:34:48.745Z,4.55
2022-10-23T01:37:22.295Z,4.53
2022-10-23T01:39:54.273Z,4.49
2022-10-23T01:42:28.513Z,4.44
2022-10-23T01:45:02.343Z,4.51
2022-10-23T01:47:35.301Z,4.48
2022-10-23T01:50:06.579Z,4.41
2022-10-23T01:52:34.945Z,4.39
2022-10-23T01:55:03.266Z,4.32
2022-10-23T01:57:33.728Z,4.28
2022-10-23T02:00:06.658Z,4.28
2022-10-23T02:02:37.331Z,4.29
2022-10-23T02:05:09.419Z,4.26
2022-10-23T02:07:37.877Z,4.25
2022-10-23T02:10:07.729Z,4.23
2022-10-23T02:12:47.476Z,4.21
2022-10-23T02:15:25.578Z,4.18
2022-10-23T02:18:04.558Z,4.16
2022-10-23T02:20:40.632Z,4.19
2022-10-23T02:23:21.479Z,4.19
2022-10-23T02:25:56.020Z,4.15
2022-10-23T02:28:27.722Z,4.16
2022-10-23T02:31:00.729Z,4.16
2022-10-23T02:33:29.859Z,4.16
2022-10-23T02:35:58.310Z,4.18
2022-10-23T02:38:35.125Z,4.19
2022-10-23T02:41:15.075Z,4.18
2022-10-23T02:43:53.079Z,4.13
2022-10-23T02:46:30.412Z,4.09
2022-10-23T02:49:09.653Z,4.13
2022-10-23T02:51:49.226Z,4.11
2022-10-23T02:54:27.000Z,4.07
2022-10-23T02:57:02.953Z,4.03
2022-10-23T02:59:38.271Z,4.01
2022-10-23T03:02:12.539Z,4.00
2022-10-23T03:04:43.944Z,3.97
2022-10-23T03:07:12.986Z,3.94
2022-10-23T03:09:43.879Z,3.96
2022-10-23T03:12:11.827Z,3.94
2022-10-23T03:14:42.071Z,3.97
2022-10-23T03:17:13.628Z,3.92
2022-10-23T03:19:43.199Z,3.93
2022-10-23T03:22:11.046Z,3.91
2022-10-23T03:24:38.892Z,3.88
2022-10-23T03:27:06.724Z,3.87
2022-10-23T03:29:35.797Z,3.85
2022-10-23T03:32:03.639Z,3.79
2022-10-23T03:34:32.921Z,3.81
2022-10-23T03:37:00.753Z,3.80
2022-10-23T03:39:28.790Z,3.75
2022-10-23T03:41:56.655Z,3.74
2022-10-23T03:44:24.554Z,3.76
2022-10-23T03:46:52.423Z,3.78
2022-10-23T03:49:20.490Z,3.84
2022-10-23T03:51:52.181Z,3.77
2022-10-23T03:54:22.495Z,3.74
2022-10-23T03:56:53.627Z,3.75
2022-10-23T03:59:24.659Z,3.77
2022-10-23T04:01:52.962Z,3.81
2022-10-23T04:04:21.034Z,3.81
2022-10-23T04:06:50.259Z,3.81
2022-10-23T04:09:18.422Z,3.81
2022-10-23T04:11:46.259Z,3.81
2022-10-23T04:14:14.924Z,3.75
2022-10-23T04:16:42.792Z,3.79
2022-10-23T04:19:10.962Z,3.78
2022-10-23T04:21:38.941Z,3.76
2022-10-23T04:24:08.714Z,3.76
2022-10-23T04:26:36.641Z,3.76
2022-10-23T04:29:04.527Z,3.73
2022-10-23T04:31:32.392Z,3.75
2022-10-23T04:34:00.342Z,3.79
2022-10-23T04:36:28.231Z,3.80
2022-10-23T04:38:56.115Z,3.80
2022-10-23T04:41:25.564Z,3.79
2022-10-23T04:43:53.435Z,3.76
2022-10-23T04:46:21.287Z,3.77
2022-10-23T04:48:49.144Z,3.79
2022-10-23T04:51:17.090Z,3.76
2022-10-23T04:53:44.954Z,3.76
2022-10-23T04:56:14.821Z,3.72
2022-10-23T04:58:44.231Z,3.73
2022-10-23T05:01:12.515Z,3.73
2022-10-23T05:03:40.513Z,3.75
2022-10-23T05:06:08.580Z,3.71
2022-10-23T05:08:36.974Z,3.73
2022-10-23T05:11:05.216Z,3.74
2022-10-23T05:13:33.317Z,3.71
2022-10-23T05:16:02.580Z,3.75
2022-10-23T05:18:35.417Z,3.75
2022-10-23T05:21:07.814Z,3.72
2022-10-23T05:23:38.055Z,3.74
2022-10-23T05:26:06.027Z,3.73
2022-10-23T05:28:33.885Z,3.67
2022-10-23T05:31:06.179Z,3.66
2022-10-23T05:33:34.474Z,3.72
2022-10-23T05:36:03.147Z,3.72
2022-10-23T05:38:34.144Z,3.72
2022-10-23T05:41:02.106Z,3.71
2022-10-23T05:43:31.293Z,3.64
2022-10-23T05:46:00.008Z,3.63
2022-10-23T05:48:34.842Z,3.63
2022-10-23T05:51:06.855Z,3.69
2022-10-23T05:53:40.130Z,3.70
2022-10-23T05:56:10.957Z,3.65
2022-10-23T05:58:38.822Z,3.71
2022-10-23T06:01:08.128Z,3.72
2022-10-23T06:03:38.635Z,3.70
2022-10-23T06:06:07.720Z,3.71
2022-10-23T06:08:35.916Z,3.60
2022-10-23T06:11:08.378Z,3.61
2022-10-23T06:13:36.845Z,3.61
2022-10-23T06:16:11.673Z,3.60
2022-10-23T06:18:40.921Z,3.56
2022-10-23T06:21:12.068Z,3.53
2022-10-23T06:23:41.059Z,3.56
2022-10-23T06:26:12.460Z,3.57
2022-10-23T06:28:40.554Z,3.56
2022-10-23T06:31:09.312Z,3.53
2022-10-23T06:33:37.676Z,3.46
2022-10-23T06:36:10.412Z,3.45
2022-10-23T06:38:40.425Z,3.45
2022-10-23T06:41:13.652Z,3.48
2022-10-23T06:43:41.536Z,3.43
2022-10-23T06:46:10.058Z,3.41
2022-10-23T06:48:37.967Z,3.45
2022-10-23T06:51:09.724Z,3.42
2022-10-23T06:53:38.252Z,3.39
2022-10-23T06:56:08.410Z,3.38
2022-10-23T06:58:36.922Z,3.34
2022-10-23T07:01:07.481Z,3.37
2022-10-23T07:03:35.793Z,3.39
2022-10-23T07:06:04.505Z,3.32
2022-10-23T07:08:33.943Z,3.35
2022-10-23T07:11:05.003Z,3.34
2022-10-23T07:13:34.155Z,3.32
2022-10-23T07:16:11.450Z,3.36
2022-10-23T07:18:39.311Z,3.35
2022-10-23T07:21:07.271Z,3.34
2022-10-23T07:23:36.579Z,3.33
2022-10-23T07:26:07.056Z,3.33
2022-10-23T07:28:34.942Z,3.32
2022-10-23T07:31:05.413Z,3.32
2022-10-23T07:33:33.267Z,3.34
2022-10-23T07:36:01.151Z,3.36
2022-10-23T07:38:29.002Z,3.40
2022-10-23T07:40:59.846Z,3.45
2022-10-23T07:43:28.210Z,3.41
2022-10-23T07:45:56.413Z,3.39
2022-10-23T07:48:27.705Z,3.44
2022-10-23T07:51:01.000Z,3.45
2022-10-23T07:53:29.413Z,3.50
2022-10-23T07:56:01.238Z,3.50
2022-10-23T07:58:30.076Z,3.49
2022-10-23T08:01:02.730Z,3.49
2022-10-23T08:03:32.982Z,3.46
2022-10-23T08:06:00.859Z,3.47
2022-10-23T08:08:28.826Z,3.55
2022-10-23T08:10:57.825Z,3.59
2022-10-23T08:13:29.895Z,3.55
2022-10-23T08:15:58.807Z,3.58
2022-10-23T08:18:26.797Z,3.61
2022-10-23T08:20:54.779Z,3.66
2022-10-23T08:23:22.636Z,3.70
2022-10-23T08:25:50.478Z,3.74
2022-10-23T08:28:18.335Z,3.77
2022-10-23T08:30:47.575Z,3.81
2022-10-23T08:33:15.431Z,3.84
2022-10-23T08:35:43.289Z,3.87
2022-10-23T08:38:11.953Z,3.93
2022-10-23T08:40:44.615Z,3.95
2022-10-23T08:43:17.215Z,3.99
2022-10-23T08:45:50.192Z,3.97
2022-10-23T08:48:24.107Z,4.03
2022-10-23T08:50:57.204Z,4.08
2022-10-23T08:53:31.293Z,4.11
2022-10-23T08:56:03.800Z,4.14
2022-10-23T08:58:38.540Z,4.16
2022-10-23T09:01:37.240Z,4.22
2022-10-23T09:04:06.461Z,4.25
2022-10-23T09:06:40.120Z,4.30
2022-10-23T09:09:29.962Z,4.35
2022-10-23T09:12:04.612Z,4.39
2022-10-23T09:15:01.838Z,4.45
2022-10-23T09:17:32.631Z,4.50
2022-10-23T09:20:15.510Z,4.55
2022-10-23T09:22:43.596Z,4.58
2022-10-23T09:25:12.709Z,4.61
2022-10-23T09:27:48.639Z,4.66
2022-10-23T09:30:31.990Z,4.70
2022-10-23T09:33:01.752Z,4.75
2022-10-23T09:35:31.267Z,4.81
2022-10-23T09:37:59.316Z,4.85
2022-10-23T09:40:33.442Z,4.88
2022-10-23T09:43:03.850Z,4.93
2022-10-23T09:45:34.475Z,4.98
2022-10-23T09:48:13.327Z,5.03
2022-10-23T09:50:50.045Z,5.08
2022-10-23T09:53:23.665Z,5.11
2022-10-23T09:55:56.468Z,5.15
2022-10-23T09:58:31.830Z,5.21
2022-10-23T10:00:59.824Z,5.28
2022-10-23T10:03:29.137Z,5.30
2022-10-23T10:06:00.080Z,5.34
2022-10-23T10:08:36.378Z,5.36
2022-10-23T10:11:11.579Z,5.38
2022-10-23T10:13:59.929Z,5.46
2022-10-23T10:19:18.765Z,5.55
2022-10-23T10:21:53.728Z,5.60
2022-10-23T10:24:27.035Z,5.64
2022-10-23T10:27:04.347Z,5.69
2022-10-23T10:29:51.298Z,5.77
2022-10-23T10:32:33.047Z,5.91
2022-10-23T10:35:18.003Z,5.99
2022-10-23T10:38:06.140Z,6.15
2022-10-23T10:40:37.275Z,6.16
2022-10-23T10:43:29.861Z,6.18
2022-10-23T10:46:08.108Z,6.24
2022-10-23T10:48:46.669Z,6.39
2022-10-23T10:51:25.251Z,6.44
2022-10-23T10:54:09.787Z,6.55
2022-10-23T10:56:42.835Z,6.60
2022-10-23T10:59:16.856Z,6.61
2022-10-23T11:01:52.683Z,6.77
2022-10-23T11:04:33.230Z,6.82
2022-10-23T11:07:08.192Z,6.95
2022-10-23T11:09:36.271Z,6.98
2022-10-23T11:12:04.406Z,7.00
2022-10-23T11:14:35.303Z,6.98
2022-10-23T11:17:09.271Z,7.09
2022-10-23T11:19:42.712Z,7.17
2022-10-23T11:22:23.174Z,7.19
2022-10-23T11:25:06.985Z,7.16
2022-10-23T11:27:54.534Z,7.24
2022-10-23T11:30:30.192Z,7.37
2022-10-23T11:33:31.425Z,7.37
2022-10-23T11:36:07.174Z,7.38
2022-10-23T11:38:39.359Z,7.43
2022-10-23T11:41:21.056Z,7.45
2022-10-23T11:43:55.404Z,7.45
2022-10-23T11:46:35.307Z,7.50
2022-10-23T11:49:06.229Z,7.56
2022-10-23T11:51:38.832Z,7.59
2022-10-23T11:54:24.681Z,7.57
2022-10-23T11:56:56.485Z,7.62
2022-10-23T11:59:29.063Z,7.73
2022-10-23T12:01:59.480Z,7.70
2022-10-23T12:04:32.039Z,7.66
2022-10-23T12:07:04.833Z,7.65
2022-10-23T12:09:41.515Z,7.77
2022-10-23T12:12:18.095Z,7.75
2022-10-23T12:14:47.599Z,7.79
2022-10-23T12:17:32.462Z,7.71
2022-10-23T12:20:19.302Z,7.74
2022-10-23T12:22:59.840Z,7.75
2022-10-23T12:25:38.790Z,7.74
2022-10-23T12:28:13.800Z,7.76
2022-10-23T12:30:45.676Z,7.79
2022-10-23T12:35:48.835Z,7.82
2022-10-23T12:38:19.447Z,7.90
2022-10-23T12:40:51.801Z,7.95
2022-10-23T12:43:27.215Z,8.04
2022-10-23T12:45:57.378Z,7.93
2022-10-23T12:48:26.213Z,7.92
2022-10-23T12:50:57.307Z,7.93
2022-10-23T12:53:25.334Z,7.96
2022-10-23T12:58:33.941Z,7.96
2022-10-23T13:01:04.479Z,7.90
2022-10-23T13:03:35.330Z,7.86
2022-10-23T13:06:05.478Z,7.86
2022-10-23T13:08:35.731Z,7.81
2022-10-23T13:11:04.403Z,7.82
2022-10-23T13:13:32.606Z,7.81
2022-10-23T13:16:00.478Z,7.82
2022-10-23T13:18:28.317Z,7.79
2022-10-23T13:20:59.613Z,7.76
2022-10-23T13:23:32.373Z,7.83
2022-10-23T13:26:02.036Z,7.84
2022-10-23T13:28:33.217Z,7.78
2022-10-23T13:31:24.128Z,7.82
2022-10-23T13:34:04.787Z,7.84
2022-10-23T13:36:36.548Z,7.84
2022-10-23T13:39:14.833Z,7.79
2022-10-23T13:41:45.011Z,7.75
2022-10-23T13:44:14.509Z,7.74
2022-10-23T13:46:42.690Z,7.71
2022-10-23T13:49:10.824Z,7.71
2022-10-23T13:51:43.405Z,7.70
2022-10-23T13:54:16.669Z,7.70
2022-10-23T13:56:44.579Z,7.71
2022-10-23T13:59:13.343Z,7.65
2022-10-23T14:01:41.939Z,7.60
2022-10-23T14:04:11.275Z,7.57
2022-10-23T14:06:39.932Z,7.53
2022-10-23T14:09:09.341Z,7.49
2022-10-23T14:11:38.613Z,7.50
2022-10-23T14:14:06.660Z,7.47
2022-10-23T14:16:34.664Z,7.45
2022-10-23T14:19:02.533Z,7.46
2022-10-23T14:21:30.396Z,7.45
2022-10-23T14:23:58.750Z,7.44
2022-10-23T14:26:30.348Z,7.39
2022-10-23T14:29:02.917Z,7.36
2022-10-23T14:31:35.590Z,7.34
2022-10-23T14:34:03.504Z,7.30
2022-10-23T14:36:38.790Z,7.27
2022-10-23T14:39:17.880Z,7.20
2022-10-23T14:41:45.827Z,7.19
2022-10-23T14:44:15.172Z,7.18
2022-10-23T14:46:43.007Z,7.15
2022-10-23T14:49:10.887Z,7.14
2022-10-23T14:51:38.892Z,7.12
2022-10-23T14:54:08.109Z,7.09
2022-10-23T14:56:38.288Z,7.08
2022-10-23T14:59:10.833Z,7.08
2022-10-23T15:01:45.097Z,7.10
2022-10-23T15:04:16.294Z,7.09
2022-10-23T15:06:46.760Z,7.09
2022-10-23T15:09:14.871Z,7.06
2022-10-23T15:11:42.987Z,7.02
2022-10-23T15:14:10.868Z,7.02
2022-10-23T15:16:42.240Z,7.01
2022-10-23T15:19:15.142Z,7.00
2022-10-23T15:21:46.263Z,7.01
2022-10-23T15:24:14.100Z,7.01
2022-10-23T15:26:43.231Z,6.98
2022-10-23T15:29:12.309Z,7.00
2022-10-23T15:31:47.090Z,7.00
2022-10-23T15:34:17.384Z,7.00
2022-10-23T15:36:47.013Z,6.94
2022-10-23T15:39:17.096Z,6.96
2022-10-23T15:41:45.745Z,6.96
2022-10-23T15:44:16.888Z,6.97
2022-10-23T15:46:46.127Z,6.94
2022-10-23T15:49:14.292Z,6.93
2022-10-23T15:51:43.061Z,6.91
2022-10-23T15:54:16.500Z,6.88
2022-10-23T15:56:44.528Z,6.89
2022-10-23T15:59:12.606Z,6.88
2022-10-23T16:01:40.599Z,6.87
2022-10-23T16:04:10.097Z,6.85
2022-10-23T16:06:38.198Z,6.82
2022-10-23T16:09:06.162Z,6.81
2022-10-23T16:11:36.247Z,6.81
2022-10-23T16:14:04.366Z,6.79
2022-10-23T16:16:33.772Z,6.80
2022-10-23T16:19:02.176Z,6.78
2022-10-23T16:21:33.788Z,6.77
2022-10-23T16:24:03.209Z,6.77
2022-10-23T16:26:32.085Z,6.77
2022-10-23T16:29:01.870Z,6.77
2022-10-23T16:31:30.239Z,6.73
2022-10-23T16:34:00.282Z,6.75
2022-10-23T16:36:28.457Z,6.75
2022-10-23T16:38:57.957Z,6.75
2022-10-23T16:41:25.840Z,6.74
2022-10-23T16:43:53.695Z,6.75
2022-10-23T16:46:23.067Z,6.74
2022-10-23T16:48:53.023Z,6.68
2022-10-23T16:51:23.158Z,6.65
2022-10-23T16:53:51.364Z,6.64
2022-10-23T16:56:22.539Z,6.65
2022-10-23T16:58:50.550Z,6.65
2022-10-23T17:01:21.395Z,6.66
2022-10-23T17:03:51.085Z,6.65
2022-10-23T17:06:21.500Z,6.65
2022-10-23T17:08:49.256Z,6.60
2022-10-23T17:11:18.893Z,6.63
2022-10-23T17:13:53.633Z,6.66
2022-10-23T17:16:27.884Z,6.67
2022-10-23T17:18:57.588Z,6.65
2022-10-23T17:21:25.834Z,6.66
2022-10-23T17:23:53.935Z,6.66
2022-10-23T17:26:23.623Z,6.66
2022-10-23T17:28:53.098Z,6.67
2022-10-23T17:31:23.300Z,6.68
2022-10-23T17:33:53.458Z,6.70
2022-10-23T17:36:22.469Z,6.71
2022-10-23T17:38:50.691Z,6.73
2022-10-23T17:41:21.443Z,6.71
2022-10-23T17:43:49.906Z,6.70
2022-10-23T17:46:19.936Z,6.70
2022-10-23T17:48:47.780Z,6.66
2022-10-23T17:51:19.522Z,6.66
2022-10-23T17:53:49.597Z,6.68
2022-10-23T17:56:20.072Z,6.68
2022-10-23T17:58:48.163Z,6.68
2022-10-23T18:01:18.715Z,6.67
2022-10-23T18:03:48.150Z,6.71
2022-10-23T18:06:18.446Z,6.72
2022-10-23T18:08:46.805Z,6.67
2022-10-23T18:11:16.761Z,6.70
2022-10-23T18:13:44.936Z,6.72
2022-10-23T18:16:13.416Z,6.73
2022-10-23T18:18:42.497Z,6.74
2022-10-23T18:21:12.051Z,6.74
2022-10-23T18:23:39.907Z,6.74
2022-10-23T18:26:15.958Z,6.76
2022-10-23T18:28:44.955Z,6.74
2022-10-23T18:31:13.897Z,6.74
2022-10-23T18:33:42.517Z,6.75
2022-10-23T18:36:17.028Z,6.73
2022-10-23T18:38:45.027Z,6.70
2022-10-23T18:41:13.035Z,6.69
2022-10-23T18:43:44.204Z,6.67
2022-10-23T18:46:13.251Z,6.70
2022-10-23T18:48:41.260Z,6.70
2022-10-23T18:51:16.181Z,6.70
2022-10-23T18:53:46.735Z,6.70
2022-10-23T18:56:15.747Z,6.70
2022-10-23T18:58:46.713Z,6.70
2022-10-23T19:01:14.627Z,6.72
2022-10-23T19:03:42.655Z,6.72
2022-10-23T19:06:10.977Z,6.68
2022-10-23T19:08:45.144Z,6.70
2022-10-23T19:11:14.066Z,6.70
2022-10-23T19:13:43.134Z,6.71
2022-10-23T19:16:15.872Z,6.72
2022-10-23T19:18:48.158Z,6.68
2022-10-23T19:21:17.666Z,6.70
2022-10-23T19:23:47.830Z,6.66
2022-10-23T19:26:16.474Z,6.67
2022-10-23T19:28:48.446Z,6.68
2022-10-23T19:31:16.744Z,6.69
2022-10-23T19:33:44.730Z,6.71
2022-10-23T19:36:14.274Z,6.74
2022-10-23T19:38:43.160Z,6.74
2022-10-23T19:41:12.479Z,6.76
2022-10-23T19:43:40.316Z,6.74
2022-10-23T19:46:11.244Z,6.76
2022-10-23T19:48:42.591Z,6.79
2022-10-23T19:51:10.530Z,6.77
2022-10-23T19:53:38.434Z,6.77
2022-10-23T19:56:08.620Z,6.77
2022-10-23T19:58:38.324Z,6.77
2022-10-23T20:01:11.080Z,6.77
2022-10-23T20:03:39.841Z,6.77
2022-10-23T20:06:10.592Z,6.75
2022-10-23T20:08:38.490Z,6.75
2022-10-23T20:11:07.098Z,6.76
2022-10-23T20:13:35.580Z,6.73
2022-10-23T20:16:05.014Z,6.75
2022-10-23T20:18:32.899Z,6.73
2022-10-23T20:21:02.597Z,6.76
2022-10-23T20:23:30.652Z,6.76
2022-10-23T20:26:05.292Z,6.75
2022-10-23T20:28:33.295Z,6.75
2022-10-23T20:31:03.239Z,6.72
2022-10-23T20:33:32.707Z,6.71
2022-10-23T20:36:00.624Z,6.70
2022-10-23T20:38:28.462Z,6.70
2022-10-23T20:40:57.497Z,6.68
2022-10-23T20:43:25.517Z,6.66
2022-10-23T20:45:53.511Z,6.68
2022-10-23T20:48:21.355Z,6.70
2022-10-23T20:50:50.924Z,6.72
2022-10-23T20:53:18.759Z,6.70
2022-10-23T20:55:46.607Z,6.72
2022-10-23T20:58:14.485Z,6.71
2022-10-23T21:00:42.355Z,6.70
2022-10-23T21:03:10.262Z,6.70
2022-10-23T21:05:38.184Z,6.70
2022-10-23T21:08:07.983Z,6.70
2022-10-23T21:10:35.899Z,6.70
2022-10-23T21:13:06.707Z,6.70
2022-10-23T21:15:34.536Z,6.71
2022-10-23T21:18:19.183Z,6.68
2022-10-23T21:20:55.746Z,6.69
2022-10-23T21:23:24.978Z,6.69
2022-10-23T21:25:53.109Z,6.68
2022-10-23T21:28:20.988Z,6.70
2022-10-23T21:30:48.814Z,6.67
2022-10-23T21:33:16.891Z,6.67
2022-10-23T21:35:57.814Z,6.67
2022-10-23T21:38:28.115Z,6.65
2022-10-23T21:40:56.166Z,6.64
2022-10-23T21:43:24.012Z,6.65
2022-10-23T21:45:54.327Z,6.66
2022-10-23T21:48:23.399Z,6.67
2022-10-23T21:50:57.477Z,6.67
2022-10-23T21:53:25.468Z,6.67
2022-10-23T21:55:56.068Z,6.66
2022-10-23T21:58:23.974Z,6.65
2022-10-23T22:00:51.842Z,6.66
2022-10-23T22:03:19.786Z,6.67
2022-10-23T22:05:47.859Z,6.65
2022-10-23T22:08:15.672Z,6.64
2022-10-23T22:10:43.595Z,6.64
2022-10-23T22:13:15.676Z,6.65
2022-10-23T22:18:16.283Z,6.65
2022-10-23T22:20:44.189Z,6.61
2022-10-23T22:23:12.030Z,6.62
2022-10-23T22:25:39.946Z,6.59
2022-10-23T22:28:07.851Z,6.60
2022-10-23T22:30:38.594Z,6.60
2022-10-23T22:33:06.486Z,6.62
2022-10-23T22:35:34.539Z,6.63
2022-10-23T22:38:02.427Z,6.61
2022-10-23T22:40:30.375Z,6.63
2022-10-23T22:42:58.278Z,6.62
2022-10-23T22:45:26.136Z,6.62
2022-10-23T22:47:55.358Z,6.64
2022-10-23T22:50:23.267Z,6.62
2022-10-23T22:52:51.480Z,6.62
2022-10-23T22:55:22.069Z,6.62
2022-10-23T22:57:49.929Z,6.64
2022-10-23T23:00:18.730Z,6.63
2022-10-23T23:02:46.634Z,6.65
2022-10-23T23:05:16.146Z,6.66
2022-10-23T23:07:44.142Z,6.67
2022-10-23T23:10:12.276Z,6.67
2022-10-23T23:12:40.115Z,6.67
2022-10-23T23:15:09.078Z,6.67
2022-10-23T23:17:36.934Z,6.67
2022-10-23T23:20:05.270Z,6.68
2022-10-23T23:22:34.475Z,6.67
2022-10-23T23:25:02.349Z,6.66
2022-10-23T23:27:33.025Z,6.66
2022-10-23T23:30:01.067Z,6.68
2022-10-23T23:32:29.055Z,6.68
2022-10-23T23:35:00.048Z,6.67
2022-10-23T23:37:30.740Z,6.64
2022-10-23T23:40:00.023Z,6.64
2022-10-23T23:42:28.247Z,6.63
2022-10-23T23:45:02.706Z,6.63
2022-10-23T23:47:38.022Z,6.64
2022-10-23T23:50:07.884Z,6.62
2022-10-23T23:52:36.173Z,6.61
2022-10-23T23:55:06.230Z,6.61
2022-10-23T23:57:34.192Z,6.60
